Terminal Aerodrome Forecast
Issued by NWS Cleveland, OH

Home | Current Version | Previous Version | Graphics & Text | Print | Product List | Glossary On
Versions: 1 2 3 4 5 6 7 8 9 10 11 12 13 14 15 16 17 18 19 20 21 22 23 24 25 26 27 28 29 30 31 32 33 34 35 36 37 38
000
FTUS41 KCLE 251700
TAFCLE
TAF
KCLE 251731Z 2518/2624 VRB04KT P6SM BKN035
     FM252000 06006KT P6SM SCT040
     FM260100 16004KT P6SM BKN250
     FM261100 20006KT P6SM SCT100 BKN250
     FM261500 22008KT P6SM SCT035 BKN250=

USA.gov is the U.S. government's official web portal to all federal, state and local government web resources and services.